Time,TemperatureF,DewpointF,PressureIn,WindDirection,WindDirectionDegrees,WindSpeedMPH,WindSpeedGustMPH,Humidity,HourlyPrecipIn,Conditions,Clouds,dailyrainin,SoftwareType,DateUTC
2013-10-24 08:17:00,35.5,33.1,29.83,NNW,338,0.0,3.0,91,0.00,,OVC080,0.00,VWS V14.01,2013-10-24 12:17:00,
2013-10-24 08:19:00,36.6,34.2,29.83,NNW,327,0.0,1.5,91,0.00,,OVC080,0.00,VWS V14.01,2013-10-24 12:19:00,
2013-10-24 08:29:00,37.4,35.1,29.84,SW,231,0.0,1.5,91,0.00,,OVC080,0.00,VWS V14.01,2013-10-24 12:29:00,
2013-10-24 08:39:00,38.5,35.8,29.84,SW,226,0.0,3.0,90,0.00,,OVC080,0.00,VWS V14.01,2013-10-24 12:39:00,
2013-10-24 08:49:00,39.7,36.5,29.84,WNW,293,0.0,3.0,88,0.00,,OVC080,0.00,VWS V14.01,2013-10-24 12:49:00,
2013-10-24 08:59:00,40.7,36.2,29.84,SW,220,1.5,4.5,84,0.00,,OVC080,0.00,VWS V14.01,2013-10-24 12:59:00,
2013-10-24 09:09:00,41.5,35.8,29.84,SW,221,4.5,4.5,80,0.00,,CLR,0.00,VWS V14.01,2013-10-24 13:09:00,
2013-10-24 09:19:00,41.9,34.9,29.84,West,266,1.5,6.0,76,0.00,,CLR,0.00,VWS V14.01,2013-10-24 13:19:00,
2013-10-24 09:29:00,42.4,34.7,29.84,SW,221,1.5,4.5,74,0.00,,CLR,0.00,VWS V14.01,2013-10-24 13:29:00,
2013-10-24 09:40:00,43.0,34.6,29.84,WSW,252,1.5,6.0,72,0.00,,CLR,0.00,VWS V14.01,2013-10-24 13:40:00,
2013-10-24 09:49:00,43.4,33.5,29.84,East,93,4.5,9.0,68,0.00,,CLR,0.00,VWS V14.01,2013-10-24 13:49:00,
2013-10-24 09:59:00,44.1,33.8,29.84,WSW,256,9.0,9.0,67,0.00,,CLR,0.00,VWS V14.01,2013-10-24 13:59:00,
2013-10-24 10:10:00,44.5,33.1,29.85,SSW,198,3.0,7.5,64,0.00,,FEW030,0.00,VWS V14.01,2013-10-24 14:10:00,
2013-10-24 10:19:00,45.2,33.4,29.84,West,279,0.0,6.0,63,0.00,,FEW030,0.00,VWS V14.01,2013-10-24 14:19:00,
2013-10-24 10:30:00,46.0,33.3,29.84,West,274,1.5,7.5,61,0.00,,FEW030,0.00,VWS V14.01,2013-10-24 14:30:00,
2013-10-24 10:40:00,46.8,32.8,29.84,SW,235,4.5,12.0,58,0.00,,FEW030,0.00,VWS V14.01,2013-10-24 14:40:00,
2013-10-24 10:50:00,47.0,31.7,29.84,WSW,256,9.0,10.5,55,0.00,,FEW030,0.00,VWS V14.01,2013-10-24 14:50:00,
2013-10-24 11:00:00,47.7,31.0,29.84,WNW,285,6.0,15.0,52,0.00,,FEW030,0.00,VWS V14.01,2013-10-24 15:00:00,
2013-10-24 11:10:00,48.2,31.4,29.84,West,259,0.0,6.0,52,0.00,,FEW030,0.00,VWS V14.01,2013-10-24 15:10:00,
2013-10-24 11:20:00,48.8,30.0,29.84,SW,225,6.0,15.0,48,0.00,,FEW030,0.00,VWS V14.01,2013-10-24 15:20:00,
2013-10-24 11:30:00,49.1,29.8,29.83,WSW,247,3.0,7.5,47,0.00,,FEW030,0.00,VWS V14.01,2013-10-24 15:30:00,
2013-10-24 11:39:00,49.8,28.8,29.83,North,0,1.5,9.0,44,0.00,,FEW030,0.00,VWS V14.01,2013-10-24 15:39:00,
2013-10-24 11:49:00,50.9,28.6,29.83,SW,225,6.0,10.5,42,0.00,,FEW030,0.00,VWS V14.01,2013-10-24 15:49:00,
2013-10-24 11:59:00,50.2,27.5,29.82,WNW,299,4.5,18.0,41,0.00,,FEW030,0.00,VWS V14.01,2013-10-24 15:59:00,
2013-10-24 12:09:00,50.4,27.6,29.82,NW,321,9.0,16.5,41,0.00,,FEW055,0.00,VWS V14.01,2013-10-24 16:09:00,
2013-10-24 12:19:00,51.0,28.1,29.82,WSW,258,7.5,13.5,41,0.00,,FEW055,0.00,VWS V14.01,2013-10-24 16:19:00,
2013-10-24 12:29:00,51.2,28.9,29.82,SW,217,0.0,4.5,42,0.00,,FEW055,0.00,VWS V14.01,2013-10-24 16:29:00,
2013-10-24 12:39:00,51.7,26.9,29.81,WSW,245,12.0,22.5,38,0.00,,FEW055,0.00,VWS V14.01,2013-10-24 16:39:00,
2013-10-24 12:49:00,51.5,27.4,29.81,WSW,255,7.5,13.5,39,0.00,,FEW055,0.00,VWS V14.01,2013-10-24 16:49:00,
2013-10-24 12:59:00,52.2,26.7,29.81,WNW,284,1.5,4.5,37,0.00,,FEW055,0.00,VWS V14.01,2013-10-24 16:59:00,
2013-10-24 13:09:00,52.0,25.9,29.81,WSW,240,7.5,15.0,36,0.00,,SCT065,0.00,VWS V14.01,2013-10-24 17:09:00,
2013-10-24 13:19:00,52.4,26.3,29.81,SSW,199,3.0,7.5,36,0.00,,SCT065,0.00,VWS V14.01,2013-10-24 17:19:00,
2013-10-24 13:29:00,52.5,25.7,29.80,WSW,248,9.0,10.5,35,0.00,,SCT065,0.00,VWS V14.01,2013-10-24 17:29:00,
2013-10-24 13:39:00,52.8,26.6,29.80,North,2,7.5,21.0,36,0.00,,SCT065,0.00,VWS V14.01,2013-10-24 17:39:00,
2013-10-24 13:49:00,52.7,25.9,29.80,NNW,338,1.5,13.5,35,0.00,,SCT065,0.00,VWS V14.01,2013-10-24 17:49:00,
2013-10-24 13:59:00,51.5,26.1,29.80,WSW,245,1.5,6.0,37,0.00,,SCT065,0.00,VWS V14.01,2013-10-24 17:59:00,
2013-10-24 14:09:00,51.7,26.3,29.80,West,265,7.5,21.0,37,0.00,,SCT065,0.00,VWS V14.01,2013-10-24 18:09:00,
2013-10-24 14:19:00,51.8,27.0,29.80,West,273,16.5,16.5,38,0.00,,SCT065,0.00,VWS V14.01,2013-10-24 18:19:00,
2013-10-24 14:29:00,52.3,27.5,29.80,SW,231,0.0,9.0,38,0.00,,SCT065,0.00,VWS V14.01,2013-10-24 18:29:00,
2013-10-24 14:39:00,52.7,27.9,29.80,NNW,333,1.5,12.0,38,0.00,,SCT065,0.00,VWS V14.01,2013-10-24 18:39:00,
2013-10-24 14:49:00,53.8,27.5,29.79,WNW,302,0.0,7.5,36,0.00,,SCT065,0.00,VWS V14.01,2013-10-24 18:49:00,
2013-10-24 14:59:00,54.2,26.5,29.80,WSW,254,9.0,19.5,34,0.00,,SCT065,0.00,VWS V14.01,2013-10-24 18:59:00,
2013-10-24 15:09:00,53.5,26.5,29.80,SW,228,4.5,7.5,35,0.00,,SCT065,0.00,VWS V14.01,2013-10-24 19:09:00,
2013-10-24 15:19:00,54.0,27.0,29.80,WNW,287,6.0,15.0,35,0.00,,SCT065,0.00,VWS V14.01,2013-10-24 19:19:00,
2013-10-24 15:30:00,52.1,26.0,29.81,West,275,7.5,7.5,36,0.00,,SCT065,0.00,VWS V14.01,2013-10-24 19:30:00,
2013-10-24 15:40:00,51.8,27.0,29.81,SW,229,1.5,4.5,38,0.00,,SCT065,0.00,VWS V14.01,2013-10-24 19:40:00,
2013-10-24 15:50:00,51.7,27.5,29.81,South,191,0.0,7.5,39,0.00,,SCT065,0.00,VWS V14.01,2013-10-24 19:50:00,
2013-10-24 16:00:00,51.6,26.8,29.81,South,191,3.0,9.0,38,0.00,,SCT065,0.00,VWS V14.01,2013-10-24 20:00:00,
2013-10-24 16:10:00,51.8,27.0,29.81,SSW,204,7.5,7.5,38,0.00,,OVC090,0.00,VWS V14.01,2013-10-24 20:10:00,
2013-10-24 16:20:00,51.1,27.0,29.81,WSW,244,1.5,3.0,39,0.00,,OVC090,0.00,VWS V14.01,2013-10-24 20:20:00,
2013-10-24 16:30:00,51.4,27.3,29.81,West,279,6.0,9.0,39,0.00,,OVC090,0.00,VWS V14.01,2013-10-24 20:30:00,
2013-10-24 16:39:00,52.0,27.8,29.82,West,269,7.5,10.5,39,0.00,,OVC090,0.00,VWS V14.01,2013-10-24 20:39:00,
2013-10-24 16:49:00,51.7,28.2,29.82,SSW,199,3.0,4.5,40,0.00,,OVC090,0.00,VWS V14.01,2013-10-24 20:49:00,
2013-10-24 16:59:00,51.2,28.3,29.81,West,259,0.0,1.5,41,0.00,,OVC090,0.00,VWS V14.01,2013-10-24 20:59:00,
2013-10-24 17:09:00,51.1,27.6,29.82,SSW,194,1.5,6.0,40,0.00,,BKN090,0.00,VWS V14.01,2013-10-24 21:09:00,
2013-10-24 17:19:00,50.8,27.3,29.82,NW,314,1.5,3.0,40,0.00,,BKN090,0.00,VWS V14.01,2013-10-24 21:19:00,
2013-10-24 17:29:00,50.3,27.5,29.82,WSW,253,0.0,1.5,41,0.00,,BKN090,0.00,VWS V14.01,2013-10-24 21:29:00,
2013-10-24 17:39:00,49.8,27.1,29.82,North,352,0.0,1.5,41,0.00,,BKN090,0.00,VWS V14.01,2013-10-24 21:39:00,
2013-10-24 17:49:00,49.6,26.9,29.83,NW,306,1.5,1.5,41,0.00,,BKN090,0.00,VWS V14.01,2013-10-24 21:49:00,
2013-10-24 17:59:00,49.2,27.1,29.83,WSW,253,3.0,6.0,42,0.00,,BKN090,0.00,VWS V14.01,2013-10-24 21:59:00,
2013-10-24 18:09:00,48.8,26.7,29.84,SSE,158,1.5,4.5,42,0.00,,SCT075,0.00,VWS V14.01,2013-10-24 22:09:00,
2013-10-24 18:19:00,48.2,26.7,29.84,WNW,303,0.0,1.5,43,0.00,,SCT075,0.00,VWS V14.01,2013-10-24 22:19:00,
2013-10-24 18:29:00,47.7,26.9,29.84,WSW,252,0.0,6.0,44,0.00,,SCT075,0.00,VWS V14.01,2013-10-24 22:29:00,
2013-10-24 18:39:00,47.6,26.8,29.85,West,263,1.5,6.0,44,0.00,,SCT075,0.00,VWS V14.01,2013-10-24 22:39:00,
2013-10-24 18:49:00,47.4,26.6,29.85,SW,216,1.5,1.5,44,0.00,,SCT075,0.00,VWS V14.01,2013-10-24 22:49:00,
2013-10-24 18:59:00,47.3,27.1,29.86,SSW,213,3.0,4.5,45,0.00,,SCT075,0.00,VWS V14.01,2013-10-24 22:59:00,
2013-10-24 19:09:00,47.0,27.3,29.86,SW,235,3.0,6.0,46,0.00,,SCT070,0.00,VWS V14.01,2013-10-24 23:09:00,
2013-10-24 19:19:00,46.5,27.4,29.87,West,259,3.0,4.5,47,0.00,,SCT070,0.00,VWS V14.01,2013-10-24 23:19:00,
2013-10-24 19:29:00,46.3,27.7,29.87,WNW,293,4.5,4.5,48,0.00,,SCT070,0.00,VWS V14.01,2013-10-24 23:29:00,
2013-10-24 19:40:00,46.0,27.4,29.87,WSW,241,0.0,1.5,48,0.00,,SCT070,0.00,VWS V14.01,2013-10-24 23:40:00,
2013-10-24 19:50:00,45.9,27.3,29.87,SW,223,4.5,9.0,48,0.00,,SCT070,0.00,VWS V14.01,2013-10-24 23:50:00,
2013-10-24 20:00:00,45.9,27.3,29.87,SW,231,0.0,3.0,48,0.00,,SCT070,0.00,VWS V14.01,2013-10-25 00:00:00,
2013-10-24 20:10:00,45.5,27.9,29.87,WNW,283,3.0,3.0,50,0.00,,FEW070,0.00,VWS V14.01,2013-10-25 00:10:00,
2013-10-24 20:20:00,44.8,27.3,29.87,SSW,209,0.0,0.0,50,0.00,,FEW070,0.00,VWS V14.01,2013-10-25 00:20:00,
2013-10-24 20:30:00,44.2,27.7,29.88,SSW,208,0.0,0.0,52,0.00,,FEW070,0.00,VWS V14.01,2013-10-25 00:30:00,
2013-10-24 20:40:00,43.8,27.8,29.88,SSW,207,0.0,0.0,53,0.00,,FEW070,0.00,VWS V14.01,2013-10-25 00:40:00,
2013-10-24 20:50:00,43.8,27.8,29.88,NW,323,1.5,6.0,53,0.00,,FEW070,0.00,VWS V14.01,2013-10-25 00:50:00,
2013-10-24 21:00:00,44.0,28.0,29.88,SW,225,4.5,4.5,53,0.00,,FEW070,0.00,VWS V14.01,2013-10-25 01:00:00,
2013-10-24 21:10:00,44.1,28.1,29.89,SW,220,0.0,4.5,53,0.00,,FEW070,0.00,VWS V14.01,2013-10-25 01:10:00,
2013-10-24 21:20:00,44.0,28.4,29.89,WSW,247,0.0,1.5,54,0.00,,FEW070,0.00,VWS V14.01,2013-10-25 01:20:00,
2013-10-24 21:30:00,43.8,28.7,29.89,WSW,248,3.0,6.0,55,0.00,,FEW070,0.00,VWS V14.01,2013-10-25 01:30:00,
2013-10-24 21:39:00,43.8,28.2,29.89,WNW,284,0.0,4.5,54,0.00,,FEW070,0.00,VWS V14.01,2013-10-25 01:39:00,
2013-10-24 21:49:00,43.7,28.6,29.90,WNW,290,7.5,7.5,55,0.00,,FEW070,0.00,VWS V14.01,2013-10-25 01:49:00,
2013-10-24 21:59:00,43.6,28.5,29.90,West,267,0.0,4.5,55,0.00,,FEW070,0.00,VWS V14.01,2013-10-25 01:59:00,
2013-10-24 22:09:00,43.1,28.0,29.90,West,264,1.5,1.5,55,0.00,,CLR,0.00,VWS V14.01,2013-10-25 02:09:00,
2013-10-24 22:19:00,42.6,28.1,29.90,WSW,253,0.0,4.5,56,0.00,,CLR,0.00,VWS V14.01,2013-10-25 02:19:00,
2013-10-24 22:29:00,42.4,28.3,29.91,SW,216,1.5,9.0,57,0.00,,CLR,0.00,VWS V14.01,2013-10-25 02:29:00,
2013-10-24 22:39:00,42.3,28.6,29.91,SW,216,1.5,6.0,58,0.00,,CLR,0.00,VWS V14.01,2013-10-25 02:39:00,
2013-10-24 22:49:00,42.2,28.5,29.91,SW,216,0.0,1.5,58,0.00,,CLR,0.00,VWS V14.01,2013-10-25 02:49:00,
2013-10-24 22:59:00,42.0,28.3,29.91,SW,236,1.5,6.0,58,0.00,,CLR,0.00,VWS V14.01,2013-10-25 02:59:00,
2013-10-24 23:09:00,41.9,28.2,29.91,WSW,242,3.0,4.5,58,0.00,,CLR,0.00,VWS V14.01,2013-10-25 03:09:00,
2013-10-24 23:19:00,41.9,28.2,29.91,SE,136,0.0,4.5,58,0.00,,CLR,0.00,VWS V14.01,2013-10-25 03:19:00,
2013-10-24 23:29:00,41.7,28.0,29.91,North,3,1.5,6.0,58,0.00,,CLR,0.00,VWS V14.01,2013-10-25 03:29:00,
2013-10-24 23:39:00,41.5,27.8,29.91,NW,317,0.0,4.5,58,0.00,,CLR,0.00,VWS V14.01,2013-10-25 03:39:00,
2013-10-24 23:49:00,41.3,28.1,29.91,NW,321,1.5,3.0,59,0.00,,CLR,0.00,VWS V14.01,2013-10-25 03:49:00,
2013-10-24 23:59:00,41.0,28.2,29.92,WNW,293,0.0,4.5,60,0.00,,CLR,0.00,VWS V14.01,2013-10-25 03:59:00,